sensor_id;sensor_type;location;lat;lon;timestamp;P1;durP1;ratioP1;P2;durP2;ratioP2
58528;SDS011;44322;52.968;5.816;2022-09-01T18:01:23;1.83;;;0.75;;
58528;SDS011;44322;52.968;5.816;2022-09-01T18:07:02;1.40;;;0.95;;
58528;SDS011;44322;52.968;5.816;2022-09-01T18:09:54;1.52;;;0.80;;
58528;SDS011;44322;52.968;5.816;2022-09-01T18:12:24;0.82;;;0.70;;
58528;SDS011;44322;52.968;5.816;2022-09-01T18:14:56;1.17;;;0.68;;
58528;SDS011;44322;52.968;5.816;2022-09-01T18:17:34;3.80;;;0.82;;
58528;SDS011;44322;52.968;5.816;2022-09-01T18:20:45;1.83;;;1.00;;
58528;SDS011;44322;52.968;5.816;2022-09-01T18:23:15;2.53;;;0.73;;
58528;SDS011;44322;52.968;5.816;2022-09-01T18:25:45;3.40;;;0.85;;
58528;SDS011;44322;52.968;5.816;2022-09-01T18:28:17;2.88;;;0.90;;
58528;SDS011;44322;52.968;5.816;2022-09-01T18:30:49;1.27;;;0.80;;
58528;SDS011;44322;52.968;5.816;2022-09-01T18:33:39;1.55;;;0.60;;
58528;SDS011;44322;52.968;5.816;2022-09-01T18:38:49;2.17;;;1.85;;
58528;SDS011;44322;52.968;5.816;2022-09-01T18:47:03;4.68;;;1.02;;
58528;SDS011;44322;52.968;5.816;2022-09-01T18:55:36;3.05;;;1.10;;
58528;SDS011;44322;52.968;5.816;2022-09-01T19:01:19;3.65;;;1.50;;
58528;SDS011;44322;52.968;5.816;2022-09-01T19:07:07;2.60;;;1.23;;
58528;SDS011;44322;52.968;5.816;2022-09-01T19:10:05;4.95;;;1.33;;
58528;SDS011;44322;52.968;5.816;2022-09-01T19:18:25;6.03;;;1.95;;
58528;SDS011;44322;52.968;5.816;2022-09-01T19:21:07;3.63;;;1.50;;
58528;SDS011;44322;52.968;5.816;2022-09-01T19:23:41;5.28;;;1.70;;
58528;SDS011;44322;52.968;5.816;2022-09-01T19:26:25;3.38;;;1.33;;
58528;SDS011;44322;52.968;5.816;2022-09-01T19:28:53;4.95;;;1.65;;
58528;SDS011;44322;52.968;5.816;2022-09-01T19:33:59;2.35;;;1.67;;
58528;SDS011;44322;52.968;5.816;2022-09-01T19:36:37;3.35;;;2.10;;
58528;SDS011;44322;52.968;5.816;2022-09-01T19:39:14;3.88;;;1.77;;
58528;SDS011;44322;52.968;5.816;2022-09-01T19:41:44;2.38;;;1.70;;
58528;SDS011;44322;52.968;5.816;2022-09-01T19:47:56;2.00;;;1.77;;
58528;SDS011;44322;52.968;5.816;2022-09-01T19:50:09;3.42;;;1.80;;
58528;SDS011;44322;52.968;5.816;2022-09-01T20:00:28;2.88;;;1.58;;
58528;SDS011;44322;52.968;5.816;2022-09-01T20:03:08;3.53;;;1.73;;
58528;SDS011;44322;52.968;5.816;2022-09-01T20:05:41;2.88;;;1.45;;
58528;SDS011;44322;52.968;5.816;2022-09-01T20:13:55;3.00;;;1.30;;
58528;SDS011;44322;52.968;5.816;2022-09-01T20:24:40;2.03;;;1.20;;
58528;SDS011;44322;52.968;5.816;2022-09-01T20:30:03;5.78;;;1.52;;
58528;SDS011;44322;52.968;5.816;2022-09-01T20:35:27;3.70;;;1.45;;
58528;SDS011;44322;52.968;5.816;2022-09-01T20:41:15;1.80;;;1.25;;
58528;SDS011;44322;52.968;5.816;2022-09-01T20:43:50;2.53;;;1.30;;
58528;SDS011;44322;52.968;5.816;2022-09-01T20:46:18;2.97;;;1.50;;
58528;SDS011;44322;52.968;5.816;2022-09-01T20:48:45;2.27;;;1.30;;
58528;SDS011;44322;52.968;5.816;2022-09-01T20:59:16;2.13;;;1.50;;
58528;SDS011;44322;52.968;5.816;2022-09-01T21:01:54;2.25;;;1.58;;
58528;SDS011;44322;52.968;5.816;2022-09-01T21:07:15;1.55;;;1.45;;
58528;SDS011;44322;52.968;5.816;2022-09-01T21:13:06;2.67;;;1.20;;
58528;SDS011;44322;52.968;5.816;2022-09-01T21:19:07;2.90;;;1.45;;
58528;SDS011;44322;52.968;5.816;2022-09-01T21:21:45;2.85;;;1.50;;
58528;SDS011;44322;52.968;5.816;2022-09-01T21:24:28;2.55;;;1.55;;
58528;SDS011;44322;52.968;5.816;2022-09-01T21:26:54;1.58;;;1.45;;
58528;SDS011;44322;52.968;5.816;2022-09-01T21:31:55;1.92;;;1.60;;
58528;SDS011;44322;52.968;5.816;2022-09-01T21:36:49;2.00;;;1.80;;
58528;SDS011;44322;52.968;5.816;2022-09-01T21:39:15;1.75;;;1.48;;
58528;SDS011;44322;52.968;5.816;2022-09-01T21:41:42;2.95;;;1.58;;
58528;SDS011;44322;52.968;5.816;2022-09-01T21:44:08;3.92;;;1.95;;
58528;SDS011;44322;52.968;5.816;2022-09-01T21:46:34;2.22;;;1.70;;
58528;SDS011;44322;52.968;5.816;2022-09-01T21:49:00;3.20;;;2.10;;
58528;SDS011;44322;52.968;5.816;2022-09-01T21:51:26;2.45;;;1.73;;
58528;SDS011;44322;52.968;5.816;2022-09-01T21:53:51;3.90;;;1.70;;
58528;SDS011;44322;52.968;5.816;2022-09-01T21:56:17;3.72;;;2.15;;
58528;SDS011;44322;52.968;5.816;2022-09-01T21:58:43;4.13;;;2.40;;
58528;SDS011;44322;52.968;5.816;2022-09-01T22:01:09;2.78;;;2.25;;
58528;SDS011;44322;52.968;5.816;2022-09-01T22:03:35;2.33;;;1.83;;
58528;SDS011;44322;52.968;5.816;2022-09-01T22:06:01;2.90;;;2.30;;
58528;SDS011;44322;52.968;5.816;2022-09-01T22:08:27;3.63;;;2.30;;
58528;SDS011;44322;52.968;5.816;2022-09-01T22:10:53;2.58;;;2.03;;
58528;SDS011;44322;52.968;5.816;2022-09-01T22:13:20;4.38;;;2.13;;
58528;SDS011;44322;52.968;5.816;2022-09-01T22:15:48;3.03;;;1.98;;
58528;SDS011;44322;52.968;5.816;2022-09-01T22:18:15;2.63;;;2.20;;
58528;SDS011;44322;52.968;5.816;2022-09-01T22:20:42;3.63;;;2.45;;
58528;SDS011;44322;52.968;5.816;2022-09-01T22:23:09;2.55;;;2.33;;
58528;SDS011;44322;52.968;5.816;2022-09-01T22:25:39;3.75;;;2.33;;
58528;SDS011;44322;52.968;5.816;2022-09-01T22:28:07;4.47;;;2.50;;
58528;SDS011;44322;52.968;5.816;2022-09-01T22:30:33;2.25;;;2.00;;
58528;SDS011;44322;52.968;5.816;2022-09-01T22:33:00;6.07;;;2.50;;
58528;SDS011;44322;52.968;5.816;2022-09-01T22:35:27;4.78;;;2.22;;
58528;SDS011;44322;52.968;5.816;2022-09-01T22:37:53;2.63;;;2.40;;
58528;SDS011;44322;52.968;5.816;2022-09-01T22:40:18;3.38;;;2.30;;
58528;SDS011;44322;52.968;5.816;2022-09-01T22:42:44;3.25;;;2.40;;
58528;SDS011;44322;52.968;5.816;2022-09-01T22:45:11;4.80;;;2.40;;
58528;SDS011;44322;52.968;5.816;2022-09-01T22:47:39;2.20;;;1.98;;
58528;SDS011;44322;52.968;5.816;2022-09-01T22:50:06;3.17;;;2.13;;
58528;SDS011;44322;52.968;5.816;2022-09-01T22:52:33;4.20;;;2.13;;
58528;SDS011;44322;52.968;5.816;2022-09-01T22:54:59;2.67;;;2.30;;
58528;SDS011;44322;52.968;5.816;2022-09-01T22:57:27;3.10;;;2.25;;
58528;SDS011;44322;52.968;5.816;2022-09-01T22:59:53;4.32;;;2.30;;
58528;SDS011;44322;52.968;5.816;2022-09-01T23:02:19;4.47;;;2.13;;
58528;SDS011;44322;52.968;5.816;2022-09-01T23:04:45;3.40;;;2.10;;
58528;SDS011;44322;52.968;5.816;2022-09-01T23:07:11;3.42;;;2.10;;
58528;SDS011;44322;52.968;5.816;2022-09-01T23:09:37;2.17;;;2.00;;
58528;SDS011;44322;52.968;5.816;2022-09-01T23:12:03;2.25;;;1.90;;
58528;SDS011;44322;52.968;5.816;2022-09-01T23:14:29;3.88;;;2.10;;
58528;SDS011;44322;52.968;5.816;2022-09-01T23:16:55;2.30;;;2.05;;
58528;SDS011;44322;52.968;5.816;2022-09-01T23:19:21;1.98;;;1.83;;
58528;SDS011;44322;52.968;5.816;2022-09-01T23:21:48;2.45;;;1.90;;
58528;SDS011;44322;52.968;5.816;2022-09-01T23:24:15;3.00;;;2.30;;
58528;SDS011;44322;52.968;5.816;2022-09-01T23:26:41;3.70;;;2.05;;
58528;SDS011;44322;52.968;5.816;2022-09-01T23:29:07;2.20;;;2.00;;
58528;SDS011;44322;52.968;5.816;2022-09-01T23:31:34;3.55;;;2.20;;
58528;SDS011;44322;52.968;5.816;2022-09-01T23:34:03;2.85;;;1.90;;
58528;SDS011;44322;52.968;5.816;2022-09-01T23:38:56;4.18;;;1.92;;
58528;SDS011;44322;52.968;5.816;2022-09-01T23:41:23;4.05;;;2.13;;
58528;SDS011;44322;52.968;5.816;2022-09-01T23:43:53;2.60;;;2.10;;
58528;SDS011;44322;52.968;5.816;2022-09-01T23:46:22;2.38;;;1.90;;
58528;SDS011;44322;52.968;5.816;2022-09-01T23:48:52;3.95;;;1.85;;
58528;SDS011;44322;52.968;5.816;2022-09-01T23:51:19;2.50;;;2.10;;
58528;SDS011;44322;52.968;5.816;2022-09-01T23:53:46;2.47;;;2.07;;
58528;SDS011;44322;52.968;5.816;2022-09-01T23:56:17;3.40;;;1.95;;
58528;SDS011;44322;52.968;5.816;2022-09-01T23:58:48;3.10;;;2.10;;
